createdAt,value
2022-11-16T00:01:25.879Z,95.84
2022-11-16T00:03:56.079Z,95.97
2022-11-16T00:06:23.826Z,96.12
2022-11-16T00:09:13.230Z,96.10
2022-11-16T00:11:40.299Z,96.29
2022-11-16T00:14:07.363Z,96.34
2022-11-16T00:16:34.415Z,96.31
2022-11-16T00:19:03.266Z,96.54
2022-11-16T00:21:30.642Z,96.46
2022-11-16T00:23:57.148Z,96.32
2022-11-16T00:26:24.046Z,96.42
2022-11-16T00:28:52.572Z,96.42
2022-11-16T00:31:19.339Z,96.66
2022-11-16T00:33:46.096Z,96.35
2022-11-16T00:36:13.757Z,96.57
2022-11-16T00:38:40.921Z,96.69
2022-11-16T00:41:08.460Z,96.60
2022-11-16T00:43:35.982Z,96.68
2022-11-16T00:46:02.879Z,96.64
2022-11-16T00:48:29.245Z,96.52
2022-11-16T00:50:55.579Z,96.54
2022-11-16T00:53:22.063Z,96.54
2022-11-16T00:55:48.451Z,97.00
2022-11-16T00:58:15.729Z,96.89
2022-11-16T01:00:43.639Z,97.13
2022-11-16T01:03:10.407Z,96.58
2022-11-16T01:05:36.739Z,96.76
2022-11-16T01:08:03.371Z,96.76
2022-11-16T01:10:29.923Z,96.79
2022-11-16T01:12:56.855Z,97.17
2022-11-16T01:15:25.493Z,97.17
2022-11-16T01:17:53.378Z,97.10
2022-11-16T01:20:22.100Z,97.05
2022-11-16T01:22:48.747Z,96.92
2022-11-16T01:25:16.006Z,97.24
2022-11-16T01:27:42.682Z,97.09
2022-11-16T01:30:12.161Z,97.21
2022-11-16T01:32:38.560Z,97.01
2022-11-16T01:35:06.214Z,97.11
2022-11-16T01:37:33.443Z,96.79
2022-11-16T01:39:59.942Z,97.03
2022-11-16T01:42:29.628Z,97.20
2022-11-16T01:45:43.916Z,97.18
2022-11-16T01:48:17.267Z,97.25
2022-11-16T01:50:45.180Z,97.04
2022-11-16T01:53:13.088Z,96.97
2022-11-16T01:55:41.173Z,97.00
2022-11-16T01:58:10.618Z,97.29
2022-11-16T02:00:37.105Z,96.87
2022-11-16T02:03:03.536Z,97.14
2022-11-16T02:06:08.396Z,97.20
2022-11-16T02:09:17.977Z,97.18
2022-11-16T02:12:02.112Z,97.08
2022-11-16T02:14:50.747Z,97.24
2022-11-16T02:17:23.176Z,96.97
2022-11-16T02:20:21.338Z,97.13
2022-11-16T02:22:53.694Z,97.12
2022-11-16T02:25:34.938Z,97.10
2022-11-16T02:28:19.603Z,97.43
2022-11-16T02:30:50.838Z,97.13
2022-11-16T02:33:23.186Z,97.26
2022-11-16T02:35:56.283Z,97.19
2022-11-16T02:38:45.368Z,97.13
2022-11-16T02:41:17.461Z,97.19
2022-11-16T02:43:47.620Z,97.60
2022-11-16T02:46:22.600Z,97.33
2022-11-16T02:48:53.093Z,97.44
2022-11-16T02:51:21.575Z,97.32
2022-11-16T02:54:00.510Z,97.53
2022-11-16T02:56:27.039Z,97.58
2022-11-16T02:58:53.639Z,97.58
2022-11-16T03:01:30.824Z,97.30
2022-11-16T03:04:21.461Z,97.44
2022-11-16T03:06:51.241Z,97.30
2022-11-16T03:09:24.497Z,97.36
2022-11-16T03:12:00.495Z,97.51
2022-11-16T03:14:48.520Z,97.53
2022-11-16T03:17:21.778Z,97.57
2022-11-16T03:20:10.912Z,97.53
2022-11-16T03:22:41.888Z,97.82
2022-11-16T03:25:11.593Z,97.50
2022-11-16T03:27:56.388Z,97.61
2022-11-16T03:30:24.822Z,97.77
2022-11-16T03:33:03.469Z,97.85
2022-11-16T03:35:43.625Z,97.68
2022-11-16T03:38:12.036Z,97.74
2022-11-16T03:40:40.553Z,97.88
2022-11-16T03:43:08.454Z,97.67
2022-11-16T03:45:36.454Z,97.84
2022-11-16T03:48:03.203Z,97.62
2022-11-16T03:50:29.683Z,97.60
2022-11-16T03:52:55.990Z,97.90
2022-11-16T03:55:22.326Z,97.75
2022-11-16T03:57:48.651Z,98.00
2022-11-16T04:00:15.390Z,97.64
2022-11-16T04:02:41.979Z,97.77
2022-11-16T04:05:38.931Z,97.68
2022-11-16T04:08:24.246Z,97.74
2022-11-16T04:11:09.650Z,97.70
2022-11-16T04:13:54.859Z,97.97
2022-11-16T04:16:39.681Z,97.79
2022-11-16T04:19:24.476Z,97.54
2022-11-16T04:22:15.250Z,97.60
2022-11-16T04:24:46.120Z,97.72
2022-11-16T04:27:34.028Z,97.46
2022-11-16T04:30:02.328Z,97.87
2022-11-16T04:32:47.697Z,97.36
2022-11-16T04:35:29.446Z,97.63
2022-11-16T04:37:57.962Z,97.57
2022-11-16T04:40:30.424Z,97.49
2022-11-16T04:43:01.964Z,97.09
2022-11-16T04:45:46.638Z,97.61
2022-11-16T04:48:14.623Z,97.33
2022-11-16T04:50:41.453Z,97.45
2022-11-16T04:53:08.335Z,97.25
2022-11-16T04:55:35.156Z,97.24
2022-11-16T04:58:02.335Z,97.31
2022-11-16T05:00:29.010Z,97.17
2022-11-16T05:03:00.759Z,97.24
2022-11-16T05:05:27.768Z,97.06
2022-11-16T05:07:54.185Z,97.18
2022-11-16T05:10:20.544Z,97.17
2022-11-16T05:12:46.866Z,97.23
2022-11-16T05:15:13.443Z,97.18
2022-11-16T05:17:39.783Z,97.07
2022-11-16T05:20:26.071Z,96.92
2022-11-16T05:22:56.608Z,96.98
2022-11-16T05:25:23.013Z,97.38
2022-11-16T05:27:49.560Z,97.07
2022-11-16T05:30:16.484Z,96.98
2022-11-16T05:32:42.799Z,97.11
2022-11-16T05:35:09.189Z,97.12
2022-11-16T05:37:35.512Z,97.46
2022-11-16T05:40:01.940Z,96.92
2022-11-16T05:42:28.248Z,97.20
2022-11-16T05:44:54.671Z,97.09
2022-11-16T05:47:21.094Z,97.35
2022-11-16T05:49:47.435Z,97.19
2022-11-16T05:52:13.788Z,97.28
2022-11-16T05:54:40.125Z,97.61
2022-11-16T05:57:06.497Z,97.19
2022-11-16T05:59:32.859Z,97.39
2022-11-16T06:01:59.254Z,97.47
2022-11-16T06:04:25.639Z,97.42
2022-11-16T06:06:52.226Z,97.40
2022-11-16T06:09:18.659Z,97.79
2022-11-16T06:11:45.002Z,97.54
2022-11-16T06:14:11.311Z,97.83
2022-11-16T06:16:37.647Z,97.30
2022-11-16T06:19:03.989Z,97.52
2022-11-16T06:21:30.479Z,97.87
2022-11-16T06:23:56.778Z,97.83
2022-11-16T06:26:23.190Z,97.59
2022-11-16T06:28:49.520Z,97.86
2022-11-16T06:31:16.123Z,97.58
2022-11-16T06:33:42.452Z,97.67
2022-11-16T06:36:08.932Z,98.01
2022-11-16T06:38:35.460Z,97.71
2022-11-16T06:41:02.491Z,97.66
2022-11-16T06:43:28.837Z,97.99
2022-11-16T06:45:57.893Z,97.79
2022-11-16T06:48:24.311Z,97.73
2022-11-16T06:50:52.103Z,98.17
2022-11-16T06:53:19.299Z,97.89
2022-11-16T06:55:45.675Z,97.85
2022-11-16T06:58:12.423Z,97.91
2022-11-16T07:00:38.938Z,97.63
2022-11-16T07:03:05.592Z,97.91
2022-11-16T07:05:33.092Z,97.75
2022-11-16T07:07:59.536Z,98.05
2022-11-16T07:10:26.297Z,97.83
2022-11-16T07:12:52.852Z,97.78
2022-11-16T07:15:19.619Z,97.78
2022-11-16T07:17:46.286Z,97.75
2022-11-16T07:20:12.695Z,98.08
2022-11-16T07:22:39.054Z,97.90
2022-11-16T07:25:05.908Z,97.83
2022-11-16T07:27:32.230Z,97.72
2022-11-16T07:29:58.590Z,97.65
2022-11-16T07:32:24.947Z,97.75
2022-11-16T07:34:51.306Z,98.01
2022-11-16T07:37:17.699Z,97.63
2022-11-16T07:39:44.057Z,97.63
2022-11-16T07:42:12.011Z,97.73
2022-11-16T07:44:39.078Z,97.66
2022-11-16T07:47:05.981Z,97.66
2022-11-16T07:49:32.423Z,97.52
2022-11-16T07:51:58.913Z,97.55
2022-11-16T07:54:25.245Z,97.59
2022-11-16T07:56:51.554Z,97.47
2022-11-16T07:59:17.911Z,97.18
2022-11-16T08:01:47.002Z,97.23
2022-11-16T08:04:15.310Z,97.23
2022-11-16T08:06:41.685Z,97.31
2022-11-16T08:09:09.324Z,97.29
2022-11-16T08:11:35.657Z,97.27
2022-11-16T08:14:02.043Z,97.06
2022-11-16T08:16:28.686Z,96.91
2022-11-16T08:18:55.227Z,96.80
2022-11-16T08:21:21.573Z,96.62
2022-11-16T08:23:48.005Z,96.72
2022-11-16T08:26:16.776Z,96.27
2022-11-16T08:28:45.310Z,96.51
2022-11-16T08:31:17.374Z,95.98
2022-11-16T08:33:43.855Z,95.87
2022-11-16T08:36:14.468Z,95.63
2022-11-16T08:38:41.023Z,95.48
2022-11-16T08:41:07.663Z,95.63
2022-11-16T08:43:35.680Z,95.29
2022-11-16T08:46:02.209Z,95.42
2022-11-16T08:48:28.516Z,95.14
2022-11-16T08:51:16.531Z,95.21
2022-11-16T08:53:41.363Z,95.11
2022-11-16T08:56:10.093Z,95.07
2022-11-16T08:58:36.571Z,94.80
2022-11-16T09:01:14.904Z,95.05
2022-11-16T09:03:41.880Z,94.99
2022-11-16T09:06:09.481Z,94.68
2022-11-16T09:08:37.395Z,94.53
2022-11-16T09:11:05.481Z,93.90
2022-11-16T09:13:31.876Z,93.98
2022-11-16T09:15:59.597Z,93.49
2022-11-16T09:18:27.279Z,93.91
2022-11-16T09:20:54.399Z,93.41
2022-11-16T09:23:25.036Z,93.07
2022-11-16T09:25:52.007Z,92.58
2022-11-16T09:28:19.142Z,92.34
2022-11-16T09:30:46.826Z,92.11
2022-11-16T09:33:13.507Z,91.95
2022-11-16T09:35:40.308Z,91.17
2022-11-16T09:38:06.731Z,90.88
2022-11-16T09:40:36.648Z,90.45
2022-11-16T09:43:09.004Z,90.04
2022-11-16T09:45:59.513Z,89.50
2022-11-16T09:48:26.350Z,88.93
2022-11-16T09:51:02.846Z,88.30
2022-11-16T09:53:38.638Z,88.15
2022-11-16T09:56:20.635Z,87.90
2022-11-16T09:59:18.022Z,87.81
2022-11-16T10:01:58.028Z,87.68
2022-11-16T10:04:27.706Z,87.57
2022-11-16T10:07:14.212Z,87.76
2022-11-16T10:09:41.374Z,86.62
2022-11-16T10:12:27.940Z,85.96
2022-11-16T10:15:15.128Z,85.29
2022-11-16T10:17:54.403Z,85.10
2022-11-16T10:20:48.911Z,84.95
2022-11-16T10:23:34.291Z,83.93
2022-11-16T10:26:16.608Z,82.39
2022-11-16T10:28:53.714Z,82.34
2022-11-16T10:31:55.348Z,81.57
2022-11-16T10:34:42.595Z,81.30
2022-11-16T10:37:13.052Z,81.13
2022-11-16T10:39:41.088Z,80.36
2022-11-16T10:42:13.338Z,80.18
2022-11-16T10:44:46.290Z,80.55
2022-11-16T10:47:21.922Z,79.83
2022-11-16T10:50:17.406Z,78.72
2022-11-16T10:52:43.748Z,78.51
2022-11-16T10:55:15.293Z,78.59
2022-11-16T10:58:03.068Z,78.43
2022-11-16T11:00:51.691Z,78.60
2022-11-16T11:03:32.438Z,79.41
2022-11-16T11:05:59.673Z,78.89
2022-11-16T11:08:30.564Z,77.38
2022-11-16T11:11:01.742Z,78.06
2022-11-16T11:13:28.540Z,78.04
2022-11-16T11:16:15.443Z,77.08
2022-11-16T11:18:42.427Z,76.58
2022-11-16T11:21:20.862Z,77.18
2022-11-16T11:23:52.343Z,77.07
2022-11-16T11:26:37.118Z,75.77
2022-11-16T11:29:24.567Z,75.02
2022-11-16T11:31:55.111Z,75.36
2022-11-16T11:34:27.529Z,75.67
2022-11-16T11:37:01.085Z,74.73
2022-11-16T11:39:36.451Z,73.79
2022-11-16T11:42:21.432Z,73.39
2022-11-16T11:44:58.601Z,73.62
2022-11-16T11:50:45.331Z,72.80
2022-11-16T11:53:34.654Z,72.85
2022-11-16T11:56:01.412Z,72.39
2022-11-16T11:58:35.490Z,71.12
2022-11-16T12:01:30.515Z,72.22
2022-11-16T12:04:21.059Z,72.83
2022-11-16T12:07:05.685Z,73.54
2022-11-16T12:09:38.786Z,73.41
2022-11-16T12:12:14.639Z,74.32
2022-11-16T12:15:03.442Z,74.62
2022-11-16T12:18:05.291Z,74.75
2022-11-16T12:20:52.752Z,75.79
2022-11-16T12:23:33.910Z,75.58
2022-11-16T12:26:26.058Z,75.92
2022-11-16T12:29:11.368Z,76.20
2022-11-16T12:31:56.210Z,76.69
2022-11-16T12:34:31.670Z,76.21
2022-11-16T12:37:19.747Z,76.47
2022-11-16T12:40:04.427Z,75.78
2022-11-16T12:42:42.173Z,76.18
2022-11-16T12:45:39.193Z,74.61
2022-11-16T12:48:17.682Z,71.84
2022-11-16T12:51:02.203Z,72.61
2022-11-16T12:54:06.633Z,71.88
2022-11-16T12:56:49.233Z,70.86
2022-11-16T12:59:30.678Z,71.11
2022-11-16T13:02:24.421Z,70.67
2022-11-16T13:05:04.326Z,70.53
2022-11-16T13:07:42.807Z,70.05
2022-11-16T13:10:19.932Z,69.84
2022-11-16T13:12:55.777Z,70.59
2022-11-16T13:15:37.087Z,70.98
2022-11-16T13:18:07.323Z,70.10
2022-11-16T13:21:01.612Z,69.39
2022-11-16T13:23:31.328Z,68.73
2022-11-16T13:26:16.754Z,70.22
2022-11-16T13:29:01.851Z,69.19
2022-11-16T13:31:38.334Z,69.58
2022-11-16T13:34:19.002Z,70.12
2022-11-16T13:36:46.481Z,69.95
2022-11-16T13:39:21.561Z,69.87
2022-11-16T13:42:07.258Z,70.21
2022-11-16T13:44:34.548Z,70.58
2022-11-16T13:47:04.750Z,70.72
2022-11-16T13:49:48.889Z,71.34
2022-11-16T13:52:26.379Z,71.46
2022-11-16T13:54:56.861Z,71.59
2022-11-16T13:57:34.461Z,71.77
2022-11-16T14:00:00.771Z,72.21
2022-11-16T14:02:33.538Z,72.27
2022-11-16T14:05:03.104Z,72.42
2022-11-16T14:07:31.187Z,72.33
2022-11-16T14:09:57.701Z,72.67
2022-11-16T14:12:53.135Z,72.70
2022-11-16T14:15:28.638Z,72.45
2022-11-16T14:17:59.644Z,72.79
2022-11-16T14:20:38.060Z,72.87
2022-11-16T14:23:24.008Z,73.33
2022-11-16T14:26:02.478Z,73.16
2022-11-16T14:28:58.093Z,73.49
2022-11-16T14:31:29.321Z,73.65
2022-11-16T14:33:59.252Z,73.95
2022-11-16T14:36:43.043Z,73.97
2022-11-16T14:39:26.192Z,74.30
2022-11-16T14:41:53.359Z,74.70
2022-11-16T14:44:26.391Z,74.91
2022-11-16T14:46:53.039Z,74.81
2022-11-16T14:49:21.480Z,74.91
2022-11-16T14:51:53.608Z,75.20
2022-11-16T14:54:28.393Z,75.25
2022-11-16T14:57:19.142Z,75.34
2022-11-16T14:59:45.479Z,75.74
2022-11-16T15:02:25.358Z,75.60
2022-11-16T15:04:53.147Z,75.85
2022-11-16T15:07:23.428Z,76.17
2022-11-16T15:09:56.067Z,76.34
2022-11-16T15:12:41.277Z,76.21
2022-11-16T15:15:15.171Z,76.60
2022-11-16T15:17:44.676Z,76.74
2022-11-16T15:20:23.347Z,76.95
2022-11-16T15:22:55.419Z,77.24
2022-11-16T15:25:27.871Z,77.29
2022-11-16T15:27:55.929Z,77.55
2022-11-16T15:30:34.251Z,77.74
2022-11-16T15:33:10.421Z,78.04
2022-11-16T15:35:38.158Z,78.41
2022-11-16T15:38:15.037Z,78.45
2022-11-16T15:40:46.385Z,78.49
2022-11-16T15:43:14.136Z,78.60
2022-11-16T15:45:42.920Z,78.90
2022-11-16T15:48:15.652Z,78.96
2022-11-16T15:51:04.064Z,79.18
2022-11-16T15:53:38.959Z,79.35
2022-11-16T15:56:11.227Z,79.79
2022-11-16T15:58:40.100Z,79.92
2022-11-16T16:01:08.256Z,80.32
2022-11-16T16:03:36.765Z,80.10
2022-11-16T16:06:04.036Z,80.37
2022-11-16T16:08:39.391Z,80.37
2022-11-16T16:11:27.224Z,80.64
2022-11-16T16:13:59.478Z,81.14
2022-11-16T16:16:28.063Z,81.07
2022-11-16T16:18:58.089Z,81.22
2022-11-16T16:21:26.103Z,81.40
2022-11-16T16:23:54.502Z,81.50
2022-11-16T16:26:22.703Z,81.94
2022-11-16T16:28:50.031Z,81.65
2022-11-16T16:31:18.831Z,81.75
2022-11-16T16:33:45.370Z,82.26
2022-11-16T16:36:13.485Z,81.96
2022-11-16T16:38:39.931Z,82.04
2022-11-16T16:41:06.991Z,82.14
2022-11-16T16:43:34.438Z,82.19
2022-11-16T16:46:02.772Z,82.60
2022-11-16T16:48:29.485Z,82.60
2022-11-16T16:50:55.905Z,82.58
2022-11-16T16:53:22.234Z,82.68
2022-11-16T16:55:48.904Z,82.34
2022-11-16T16:58:15.966Z,82.52
2022-11-16T17:00:42.697Z,82.74
2022-11-16T17:03:09.478Z,82.77
2022-11-16T17:05:35.920Z,83.14
2022-11-16T17:08:02.243Z,82.86
2022-11-16T17:10:28.695Z,83.07
2022-11-16T17:12:56.032Z,82.91
2022-11-16T17:15:23.098Z,83.09
2022-11-16T17:17:49.547Z,83.22
2022-11-16T17:20:16.371Z,83.17
2022-11-16T17:22:43.030Z,83.47
2022-11-16T17:25:10.506Z,83.51
2022-11-16T17:27:36.875Z,83.84
2022-11-16T17:30:04.121Z,83.13
2022-11-16T17:32:30.480Z,83.45
2022-11-16T17:34:56.801Z,83.44
2022-11-16T17:37:23.183Z,83.60
2022-11-16T17:39:49.497Z,83.86
2022-11-16T17:42:15.830Z,84.04
2022-11-16T17:44:42.150Z,83.86
2022-11-16T17:47:09.029Z,84.13
2022-11-16T17:49:35.363Z,84.27
2022-11-16T17:52:02.179Z,84.19
2022-11-16T17:54:28.520Z,84.15
2022-11-16T17:56:54.875Z,83.96
2022-11-16T17:59:24.987Z,84.03
2022-11-16T18:01:54.438Z,84.36
2022-11-16T18:04:20.778Z,84.26
2022-11-16T18:06:47.124Z,84.61
2022-11-16T18:09:13.454Z,84.63
2022-11-16T18:11:39.832Z,84.69
2022-11-16T18:14:06.184Z,84.56
2022-11-16T18:16:33.649Z,84.67
2022-11-16T18:19:03.155Z,84.68
2022-11-16T18:21:30.361Z,85.03
2022-11-16T18:23:59.254Z,84.77
2022-11-16T18:26:25.654Z,84.97
2022-11-16T18:28:52.999Z,85.01
2022-11-16T18:31:22.078Z,84.96
2022-11-16T18:33:51.391Z,85.12
2022-11-16T18:36:19.631Z,85.07
2022-11-16T18:38:46.216Z,84.95
2022-11-16T18:41:12.482Z,84.99
2022-11-16T18:43:41.676Z,84.92
2022-11-16T18:46:08.509Z,85.04
2022-11-16T18:48:35.021Z,85.00
2022-11-16T18:51:03.171Z,84.94
2022-11-16T18:53:31.207Z,84.86
2022-11-16T18:55:58.382Z,84.89
2022-11-16T18:58:49.205Z,85.09
2022-11-16T19:01:14.584Z,84.74
2022-11-16T19:03:41.199Z,84.95
2022-11-16T19:06:08.946Z,84.92
2022-11-16T19:08:37.297Z,85.15
2022-11-16T19:11:08.595Z,84.92
2022-11-16T19:13:35.537Z,84.74
2022-11-16T19:16:02.336Z,84.95
2022-11-16T19:18:28.690Z,84.80
2022-11-16T19:21:15.586Z,84.77
2022-11-16T19:23:44.354Z,84.88
2022-11-16T19:26:12.851Z,84.94
2022-11-16T19:28:41.319Z,84.84
2022-11-16T19:31:09.887Z,84.67
2022-11-16T19:33:37.252Z,84.92
2022-11-16T19:36:12.576Z,84.67
2022-11-16T19:38:39.428Z,85.02
2022-11-16T19:41:07.210Z,84.65
2022-11-16T19:43:34.616Z,84.38
2022-11-16T19:46:08.691Z,84.41
2022-11-16T19:48:35.883Z,85.01
2022-11-16T19:51:14.393Z,84.92
2022-11-16T19:53:40.953Z,84.82
2022-11-16T19:56:10.813Z,84.77
2022-11-16T19:58:38.448Z,84.91
2022-11-16T20:01:07.890Z,84.80
2022-11-16T20:03:34.912Z,84.58
2022-11-16T20:06:06.965Z,84.52
2022-11-16T20:08:33.459Z,84.51
2022-11-16T20:10:59.839Z,84.55
2022-11-16T20:13:26.197Z,84.77
2022-11-16T20:15:52.540Z,84.77
2022-11-16T20:18:18.859Z,84.79
2022-11-16T20:20:45.174Z,85.02
2022-11-16T20:23:14.843Z,85.16
2022-11-16T20:25:41.170Z,84.78
2022-11-16T20:28:07.588Z,84.68
2022-11-16T20:30:33.984Z,84.67
2022-11-16T20:33:00.283Z,84.82
2022-11-16T20:35:26.627Z,84.77
2022-11-16T20:37:52.927Z,84.96
2022-11-16T20:40:19.249Z,84.79
2022-11-16T20:42:46.796Z,84.85
2022-11-16T20:45:13.289Z,84.48
2022-11-16T20:47:39.603Z,84.84
2022-11-16T20:50:06.116Z,84.59
2022-11-16T20:52:32.455Z,84.75
2022-11-16T20:54:58.786Z,84.64
2022-11-16T20:57:25.123Z,84.39
2022-11-16T20:59:51.466Z,84.26
2022-11-16T21:02:17.785Z,84.36
2022-11-16T21:04:44.103Z,84.37
2022-11-16T21:07:10.938Z,84.27
2022-11-16T21:09:57.406Z,84.12
2022-11-16T21:12:42.976Z,84.64
2022-11-16T21:15:09.739Z,84.53
2022-11-16T21:17:36.107Z,84.64
2022-11-16T21:20:26.413Z,84.67
2022-11-16T21:22:50.258Z,84.55
2022-11-16T21:25:17.010Z,84.69
2022-11-16T21:27:43.339Z,84.50
2022-11-16T21:30:10.123Z,84.70
2022-11-16T21:32:36.463Z,84.58
2022-11-16T21:35:02.860Z,84.44
2022-11-16T21:37:29.196Z,84.46
2022-11-16T21:39:55.499Z,84.64
2022-11-16T21:42:21.815Z,84.39
2022-11-16T21:44:48.159Z,84.67
2022-11-16T21:47:14.541Z,84.61
2022-11-16T21:50:00.932Z,84.25
2022-11-16T21:52:28.727Z,84.46
2022-11-16T21:55:01.234Z,84.68
2022-11-16T21:57:27.820Z,84.63
2022-11-16T21:59:54.171Z,85.01
2022-11-16T22:02:20.501Z,84.95
2022-11-16T22:05:05.488Z,84.77
2022-11-16T22:07:36.628Z,84.69
2022-11-16T22:10:08.286Z,84.95
2022-11-16T22:12:34.897Z,85.22
2022-11-16T22:15:02.150Z,84.77
2022-11-16T22:17:28.956Z,85.06
2022-11-16T22:19:55.565Z,85.49
2022-11-16T22:22:22.571Z,85.22
2022-11-16T22:24:49.039Z,85.30
2022-11-16T22:27:15.966Z,85.42
2022-11-16T22:29:42.342Z,85.38
2022-11-16T22:32:09.057Z,85.18
2022-11-16T22:34:35.674Z,85.43
2022-11-16T22:37:02.130Z,85.04
2022-11-16T22:39:28.483Z,85.17
2022-11-16T22:41:54.790Z,85.61
2022-11-16T22:44:21.099Z,85.52
2022-11-16T22:46:49.353Z,85.64
2022-11-16T22:49:15.655Z,85.64
2022-11-16T22:51:42.243Z,85.88
2022-11-16T22:54:11.325Z,86.31
2022-11-16T22:56:38.250Z,86.03
2022-11-16T22:59:05.687Z,86.40
2022-11-16T23:01:32.551Z,86.76
2022-11-16T23:03:58.922Z,87.02
2022-11-16T23:06:25.391Z,87.17
2022-11-16T23:08:51.766Z,87.45
2022-11-16T23:11:39.102Z,87.52
2022-11-16T23:14:25.753Z,88.19
2022-11-16T23:16:52.675Z,88.68
2022-11-16T23:19:38.809Z,88.63
2022-11-16T23:22:25.145Z,88.62
2022-11-16T23:25:10.455Z,88.87
2022-11-16T23:27:45.027Z,89.42
2022-11-16T23:30:13.063Z,89.80
2022-11-16T23:32:40.426Z,90.21
2022-11-16T23:35:07.373Z,90.23
2022-11-16T23:37:33.815Z,90.18
2022-11-16T23:40:00.297Z,90.24
2022-11-16T23:43:01.803Z,90.76
2022-11-16T23:45:28.155Z,91.00
2022-11-16T23:47:54.511Z,91.57
2022-11-16T23:50:20.824Z,91.59
2022-11-16T23:52:47.155Z,91.90
2022-11-16T23:55:13.486Z,91.86
2022-11-16T23:57:39.857Z,92.13
